createdAt,value
2023-03-11T00:02:17.230Z,67.11
2023-03-11T00:04:49.929Z,68.23
2023-03-11T00:07:24.090Z,68.56
2023-03-11T00:09:56.771Z,67.99
2023-03-11T00:12:29.356Z,67.50
2023-03-11T00:15:02.037Z,68.09
2023-03-11T00:17:34.888Z,67.80
2023-03-11T00:20:08.983Z,67.73
2023-03-11T00:22:42.978Z,67.67
2023-03-11T00:25:16.039Z,68.22
2023-03-11T00:27:48.819Z,68.50
2023-03-11T00:30:22.138Z,67.18
2023-03-11T00:32:56.046Z,68.07
2023-03-11T00:35:30.768Z,68.01
2023-03-11T00:38:06.542Z,68.12
2023-03-11T00:40:40.204Z,68.09
2023-03-11T00:43:12.946Z,68.05
2023-03-11T00:45:45.907Z,67.95
2023-03-11T00:48:18.944Z,68.24
2023-03-11T00:50:51.786Z,68.52
2023-03-11T00:53:25.898Z,68.68
2023-03-11T00:55:58.531Z,68.06
2023-03-11T00:58:33.319Z,68.34
2023-03-11T01:01:08.513Z,67.79
2023-03-11T01:03:41.140Z,68.47
2023-03-11T01:06:14.370Z,68.22
2023-03-11T01:08:48.349Z,68.48
2023-03-11T01:11:22.391Z,67.71
2023-03-11T01:13:55.128Z,68.27
2023-03-11T01:16:27.936Z,68.39
2023-03-11T01:19:00.700Z,68.01
2023-03-11T01:21:33.603Z,67.88
2023-03-11T01:24:07.926Z,68.28
2023-03-11T01:26:40.782Z,67.94
2023-03-11T01:29:13.351Z,68.59
2023-03-11T01:31:46.255Z,68.27
2023-03-11T01:34:18.920Z,67.54
2023-03-11T01:36:51.576Z,68.37
2023-03-11T01:39:27.297Z,68.36
2023-03-11T01:42:00.172Z,68.09
2023-03-11T01:44:32.957Z,68.15
2023-03-11T01:47:24.518Z,68.60
2023-03-11T01:49:57.428Z,68.39
2023-03-11T01:52:30.366Z,68.17
2023-03-11T01:55:06.292Z,68.38
2023-03-11T01:57:40.124Z,67.84
2023-03-11T02:00:15.684Z,68.48
2023-03-11T02:02:51.296Z,68.46
2023-03-11T02:05:27.005Z,68.17
2023-03-11T02:08:00.168Z,68.06
2023-03-11T02:10:39.335Z,68.73
2023-03-11T02:13:12.740Z,68.02
2023-03-11T02:15:45.525Z,68.42
2023-03-11T02:18:20.302Z,68.67
2023-03-11T02:20:55.706Z,68.31
2023-03-11T02:23:31.621Z,68.58
2023-03-11T02:26:09.154Z,68.18
2023-03-11T02:28:44.220Z,67.97
2023-03-11T02:31:17.355Z,68.06
2023-03-11T02:33:52.274Z,68.33
2023-03-11T02:36:32.158Z,68.39
2023-03-11T02:39:05.674Z,68.53
2023-03-11T02:41:40.619Z,68.46
2023-03-11T02:44:15.451Z,68.58
2023-03-11T02:46:48.496Z,68.37
2023-03-11T02:49:22.074Z,68.60
2023-03-11T02:51:54.663Z,68.43
2023-03-11T02:54:27.438Z,68.25
2023-03-11T02:57:00.713Z,68.19
2023-03-11T02:59:35.135Z,68.19
2023-03-11T03:02:07.759Z,68.66
2023-03-11T03:04:40.505Z,68.03
2023-03-11T03:07:13.247Z,68.25
2023-03-11T03:09:45.934Z,67.61
2023-03-11T03:12:18.565Z,68.23
2023-03-11T03:14:52.528Z,68.14
2023-03-11T03:17:25.118Z,68.12
2023-03-11T03:19:58.032Z,68.18
2023-03-11T03:22:31.010Z,67.08
2023-03-11T03:25:04.028Z,68.16
2023-03-11T03:27:36.830Z,68.15
2023-03-11T03:30:12.835Z,68.39
2023-03-11T03:32:46.140Z,68.15
2023-03-11T03:35:21.702Z,67.95
2023-03-11T03:38:14.179Z,68.54
2023-03-11T03:40:48.298Z,68.37
2023-03-11T03:43:23.699Z,68.44
2023-03-11T03:45:58.320Z,68.67
2023-03-11T03:48:33.514Z,68.31
2023-03-11T03:51:08.664Z,68.94
2023-03-11T03:53:43.816Z,68.96
2023-03-11T03:56:17.775Z,69.36
2023-03-11T03:58:50.717Z,69.09
2023-03-11T04:01:25.519Z,68.66
2023-03-11T04:03:58.336Z,69.24
2023-03-11T04:06:31.496Z,69.47
2023-03-11T04:09:08.724Z,68.80
2023-03-11T04:11:41.308Z,69.21
2023-03-11T04:14:14.565Z,69.33
2023-03-11T04:16:57.714Z,69.44
2023-03-11T04:19:30.426Z,69.53
2023-03-11T04:22:03.852Z,69.78
2023-03-11T04:24:36.460Z,68.87
2023-03-11T04:27:09.345Z,69.11
2023-03-11T04:29:41.984Z,69.10
2023-03-11T04:32:16.057Z,68.98
2023-03-11T04:34:50.723Z,69.52
2023-03-11T04:37:28.163Z,69.51
2023-03-11T04:40:00.938Z,69.60
2023-03-11T04:42:34.734Z,69.58
2023-03-11T04:45:08.720Z,69.27
2023-03-11T04:47:43.159Z,69.44
2023-03-11T04:50:15.878Z,69.82
2023-03-11T04:52:48.618Z,69.32
2023-03-11T04:55:21.297Z,69.80
2023-03-11T04:57:54.153Z,69.70
2023-03-11T05:00:27.320Z,69.49
2023-03-11T05:03:10.452Z,69.33
2023-03-11T05:05:43.468Z,69.25
2023-03-11T05:08:16.371Z,69.49
2023-03-11T05:10:50.494Z,69.20
2023-03-11T05:13:23.455Z,69.46
2023-03-11T05:15:57.944Z,69.17
2023-03-11T05:18:32.586Z,69.18
2023-03-11T05:21:05.598Z,70.01
2023-03-11T05:23:40.332Z,69.73
2023-03-11T05:26:13.140Z,69.86
2023-03-11T05:28:48.661Z,69.41
2023-03-11T05:31:21.444Z,68.87
2023-03-11T05:33:55.473Z,69.12
2023-03-11T05:36:28.008Z,68.96
2023-03-11T05:39:00.648Z,69.32
2023-03-11T05:41:33.994Z,69.20
2023-03-11T05:44:07.183Z,69.27
2023-03-11T05:46:39.913Z,69.16
2023-03-11T05:49:14.427Z,69.47
2023-03-11T05:51:47.165Z,68.49
2023-03-11T05:54:19.839Z,69.08
2023-03-11T05:56:55.839Z,68.69
2023-03-11T05:59:29.143Z,69.06
2023-03-11T06:02:07.277Z,70.09
2023-03-11T06:04:41.399Z,69.10
2023-03-11T06:07:16.133Z,69.24
2023-03-11T06:09:52.002Z,69.08
2023-03-11T06:12:25.016Z,68.86
2023-03-11T06:15:16.303Z,69.70
2023-03-11T06:17:48.941Z,70.45
2023-03-11T06:20:22.965Z,68.92
2023-03-11T06:22:56.567Z,68.61
2023-03-11T06:25:30.305Z,69.55
2023-03-11T06:28:02.801Z,69.11
2023-03-11T06:30:35.909Z,68.87
2023-03-11T06:33:15.577Z,69.30
2023-03-11T06:35:58.633Z,69.21
2023-03-11T06:38:31.493Z,69.49
2023-03-11T06:41:05.015Z,69.09
2023-03-11T06:43:38.894Z,70.01
2023-03-11T06:46:13.333Z,69.64
2023-03-11T06:48:46.767Z,69.41
2023-03-11T06:51:23.558Z,69.60
2023-03-11T06:53:56.187Z,69.51
2023-03-11T06:56:29.969Z,69.78
2023-03-11T06:59:07.926Z,69.87
2023-03-11T07:01:41.157Z,69.37
2023-03-11T07:04:15.244Z,69.71
2023-03-11T07:06:50.012Z,69.84
2023-03-11T07:09:27.759Z,69.74
2023-03-11T07:12:00.625Z,70.16
2023-03-11T07:14:38.106Z,69.31
2023-03-11T07:17:10.758Z,69.54
2023-03-11T07:19:49.752Z,69.30
2023-03-11T07:22:23.727Z,69.83
2023-03-11T07:24:56.279Z,69.90
2023-03-11T07:27:29.359Z,69.77
2023-03-11T07:30:02.056Z,69.72
2023-03-11T07:32:34.799Z,69.65
2023-03-11T07:35:08.082Z,69.62
2023-03-11T07:37:42.044Z,69.44
2023-03-11T07:40:15.066Z,69.76
2023-03-11T07:42:47.982Z,69.16
2023-03-11T07:45:21.476Z,69.91
2023-03-11T07:47:54.264Z,70.00
2023-03-11T07:50:26.791Z,70.20
2023-03-11T07:53:00.927Z,69.81
2023-03-11T07:55:33.624Z,70.06
2023-03-11T07:58:06.277Z,70.07
2023-03-11T08:00:38.855Z,70.40
2023-03-11T08:03:11.446Z,70.51
2023-03-11T08:05:44.057Z,70.33
2023-03-11T08:08:18.036Z,69.18
2023-03-11T08:10:50.853Z,69.30
2023-03-11T08:13:23.429Z,69.64
2023-03-11T08:15:56.109Z,69.83
2023-03-11T08:18:28.802Z,69.96
2023-03-11T08:21:05.099Z,70.22
2023-03-11T08:23:39.246Z,70.47
2023-03-11T08:26:13.589Z,69.96
2023-03-11T08:28:46.238Z,70.28
2023-03-11T08:31:19.598Z,69.91
2023-03-11T08:33:53.906Z,70.71
2023-03-11T08:36:26.584Z,70.37
2023-03-11T08:39:00.708Z,70.34
2023-03-11T08:41:33.686Z,70.70
2023-03-11T08:44:06.386Z,70.66
2023-03-11T08:46:39.463Z,70.15
2023-03-11T08:49:12.055Z,70.08
2023-03-11T08:51:44.571Z,70.23
2023-03-11T08:54:18.834Z,69.89
2023-03-11T08:56:51.485Z,70.01
2023-03-11T08:59:24.107Z,70.40
2023-03-11T09:01:56.679Z,70.57
2023-03-11T09:04:29.330Z,70.63
2023-03-11T09:07:01.912Z,70.42
2023-03-11T09:09:35.926Z,70.30
2023-03-11T09:12:09.107Z,70.46
2023-03-11T09:14:41.725Z,70.81
2023-03-11T09:17:14.479Z,70.55
2023-03-11T09:19:47.044Z,70.70
2023-03-11T09:22:19.658Z,70.67
2023-03-11T09:24:53.826Z,70.34
2023-03-11T09:27:26.410Z,70.96
2023-03-11T09:29:59.268Z,70.66
2023-03-11T09:32:31.960Z,70.87
2023-03-11T09:35:05.046Z,70.69
2023-03-11T09:37:37.987Z,70.73
2023-03-11T09:40:17.335Z,70.92
2023-03-11T09:42:55.308Z,71.05
2023-03-11T09:45:29.031Z,71.69
2023-03-11T09:48:10.039Z,71.74
2023-03-11T09:50:48.716Z,71.88
2023-03-11T09:53:30.218Z,71.88
2023-03-11T09:56:07.072Z,71.41
2023-03-11T09:58:42.246Z,70.92
2023-03-11T10:01:18.157Z,71.53
2023-03-11T10:03:53.003Z,71.77
2023-03-11T10:06:26.950Z,71.61
2023-03-11T10:09:02.294Z,70.41
2023-03-11T10:11:45.457Z,70.62
2023-03-11T10:14:27.240Z,70.26
2023-03-11T10:17:05.222Z,70.49
2023-03-11T10:19:43.400Z,69.81
2023-03-11T10:22:20.805Z,69.86
2023-03-11T10:25:01.609Z,69.46
2023-03-11T10:27:42.072Z,70.11
2023-03-11T10:30:20.282Z,70.40
2023-03-11T10:32:56.479Z,67.96
2023-03-11T10:35:33.740Z,70.36
2023-03-11T10:38:09.302Z,70.90
2023-03-11T10:40:42.856Z,71.92
2023-03-11T10:43:18.728Z,70.55
2023-03-11T10:45:51.725Z,69.97
2023-03-11T10:48:26.066Z,70.84
2023-03-11T10:51:02.563Z,70.96
2023-03-11T10:53:44.753Z,67.83
2023-03-11T10:56:29.301Z,70.93
2023-03-11T10:59:09.402Z,68.96
2023-03-11T11:01:54.716Z,69.47
2023-03-11T11:04:32.232Z,70.52
2023-03-11T11:07:29.519Z,68.65
2023-03-11T11:10:16.794Z,67.60
2023-03-11T11:12:54.090Z,68.19
2023-03-11T11:15:29.730Z,69.90
2023-03-11T11:18:04.534Z,66.96
2023-03-11T11:20:39.005Z,67.91
2023-03-11T11:23:25.493Z,68.30
2023-03-11T11:25:59.563Z,66.37
2023-03-11T11:28:33.193Z,67.80
2023-03-11T11:31:19.992Z,67.64
2023-03-11T11:33:53.583Z,64.89
2023-03-11T11:36:28.699Z,68.72
2023-03-11T11:39:03.338Z,66.67
2023-03-11T11:41:37.752Z,68.86
2023-03-11T11:44:19.121Z,66.20
2023-03-11T11:46:56.908Z,68.23
2023-03-11T11:49:31.591Z,68.92
2023-03-11T11:52:05.820Z,66.20
2023-03-11T11:54:40.525Z,67.77
2023-03-11T11:57:14.634Z,58.40
2023-03-11T11:59:50.147Z,55.88
2023-03-11T12:02:37.988Z,52.03
2023-03-11T12:05:16.386Z,55.47
2023-03-11T12:07:56.076Z,58.10
2023-03-11T12:10:30.490Z,64.15
2023-03-11T12:13:22.788Z,62.80
2023-03-11T12:16:00.103Z,60.39
2023-03-11T12:18:37.846Z,62.30
2023-03-11T12:21:21.731Z,63.49
2023-03-11T12:24:03.949Z,63.97
2023-03-11T12:26:37.774Z,68.27
2023-03-11T12:29:16.263Z,65.26
2023-03-11T12:31:49.368Z,69.90
2023-03-11T12:34:25.197Z,63.76
2023-03-11T12:36:59.487Z,68.03
2023-03-11T12:39:33.846Z,68.88
2023-03-11T12:42:20.112Z,64.58
2023-03-11T12:44:54.258Z,65.03
2023-03-11T12:47:28.832Z,66.34
2023-03-11T12:50:20.249Z,68.28
2023-03-11T12:52:54.997Z,70.09
2023-03-11T12:55:32.899Z,67.08
2023-03-11T12:58:28.561Z,66.53
2023-03-11T13:01:11.006Z,66.96
2023-03-11T13:03:48.624Z,68.55
2023-03-11T13:06:34.343Z,66.03
2023-03-11T13:09:14.587Z,62.98
2023-03-11T13:11:48.590Z,64.47
2023-03-11T13:14:33.817Z,64.84
2023-03-11T13:17:27.309Z,60.97
2023-03-11T13:19:59.995Z,64.57
2023-03-11T13:22:51.087Z,67.75
2023-03-11T13:25:29.287Z,67.71
2023-03-11T13:28:12.212Z,64.04
2023-03-11T13:30:52.566Z,64.19
2023-03-11T13:33:31.387Z,69.29
2023-03-11T13:36:12.566Z,64.90
2023-03-11T13:39:02.058Z,66.60
2023-03-11T13:41:37.365Z,64.22
2023-03-11T13:44:15.807Z,65.44
2023-03-11T13:46:50.658Z,65.75
2023-03-11T13:49:27.426Z,65.21
2023-03-11T13:52:01.276Z,65.11
2023-03-11T13:54:37.055Z,65.62
2023-03-11T13:57:20.253Z,64.53
2023-03-11T13:59:53.996Z,67.50
2023-03-11T14:02:27.624Z,66.25
2023-03-11T14:05:04.774Z,66.70
2023-03-11T14:07:38.605Z,65.59
2023-03-11T14:10:18.108Z,67.42
2023-03-11T14:12:52.733Z,66.20
2023-03-11T14:15:26.984Z,66.60
2023-03-11T14:18:16.768Z,67.16
2023-03-11T14:20:50.783Z,68.48
2023-03-11T14:23:29.565Z,68.63
2023-03-11T14:26:04.781Z,68.99
2023-03-11T14:28:41.616Z,67.28
2023-03-11T14:31:25.694Z,69.20
2023-03-11T14:34:04.212Z,72.03
2023-03-11T14:36:44.683Z,71.98
2023-03-11T14:39:24.109Z,71.52
2023-03-11T14:41:58.710Z,70.94
2023-03-11T14:44:34.130Z,72.25
2023-03-11T14:47:10.159Z,71.91
2023-03-11T14:49:43.234Z,72.16
2023-03-11T14:52:20.352Z,72.51
2023-03-11T14:54:53.799Z,72.86
2023-03-11T14:57:32.976Z,72.17
2023-03-11T15:00:15.016Z,74.59
2023-03-11T15:02:59.410Z,72.06
2023-03-11T15:05:35.978Z,73.02
2023-03-11T15:08:09.236Z,71.39
2023-03-11T15:11:03.129Z,71.43
2023-03-11T15:13:37.141Z,70.12
2023-03-11T15:16:22.882Z,71.61
2023-03-11T15:18:55.643Z,71.98
2023-03-11T15:21:28.441Z,72.30
2023-03-11T15:24:02.188Z,70.70
2023-03-11T15:26:38.390Z,69.12
2023-03-11T15:29:15.546Z,69.88
2023-03-11T15:31:50.040Z,70.30
2023-03-11T15:34:27.888Z,70.50
2023-03-11T15:37:06.350Z,69.93
2023-03-11T15:39:44.053Z,70.18
2023-03-11T15:42:20.800Z,71.62
2023-03-11T15:45:02.137Z,69.77
2023-03-11T15:47:36.215Z,70.74
2023-03-11T15:50:25.225Z,70.01
2023-03-11T15:52:59.419Z,70.86
2023-03-11T15:55:32.673Z,71.45
2023-03-11T15:58:08.079Z,69.77
2023-03-11T16:00:47.440Z,71.29
2023-03-11T16:03:21.448Z,69.49
2023-03-11T16:05:54.191Z,69.30
2023-03-11T16:08:26.797Z,69.90
2023-03-11T16:10:59.653Z,69.96
2023-03-11T16:13:32.266Z,69.96
2023-03-11T16:16:05.372Z,71.56
2023-03-11T16:18:39.521Z,70.34
2023-03-11T16:21:15.444Z,70.49
2023-03-11T16:23:51.957Z,70.18
2023-03-11T16:26:24.926Z,70.02
2023-03-11T16:29:06.203Z,69.61
2023-03-11T16:31:45.611Z,71.51
2023-03-11T16:34:19.860Z,69.54
2023-03-11T16:36:52.572Z,70.28
2023-03-11T16:39:25.144Z,70.58
2023-03-11T16:41:57.838Z,69.64
2023-03-11T16:44:30.363Z,70.38
2023-03-11T16:47:03.248Z,69.79
2023-03-11T16:49:37.273Z,69.62
2023-03-11T16:52:09.963Z,69.63
2023-03-11T16:54:42.760Z,70.02
2023-03-11T16:57:15.466Z,70.04
2023-03-11T16:59:49.424Z,69.82
2023-03-11T17:02:24.415Z,70.52
2023-03-11T17:04:58.659Z,70.66
2023-03-11T17:07:31.468Z,69.24
2023-03-11T17:10:04.898Z,70.04
2023-03-11T17:12:37.763Z,70.41
2023-03-11T17:15:10.803Z,70.06
2023-03-11T17:17:43.429Z,70.62
2023-03-11T17:20:19.315Z,69.44
2023-03-11T17:22:53.324Z,70.32
2023-03-11T17:25:25.892Z,70.43
2023-03-11T17:27:58.806Z,70.13
2023-03-11T17:30:37.076Z,69.93
2023-03-11T17:33:10.412Z,69.25
2023-03-11T17:35:44.423Z,70.05
2023-03-11T17:38:17.295Z,70.26
2023-03-11T17:40:49.875Z,69.96
2023-03-11T17:43:22.818Z,69.70
2023-03-11T17:45:55.413Z,69.67
2023-03-11T17:48:29.032Z,70.76
2023-03-11T17:51:07.188Z,70.11
2023-03-11T17:53:40.255Z,70.39
2023-03-11T17:56:14.180Z,70.31
2023-03-11T17:58:47.167Z,70.92
2023-03-11T18:01:20.901Z,70.01
2023-03-11T18:03:53.890Z,70.99
2023-03-11T18:06:28.279Z,69.68
2023-03-11T18:09:00.932Z,70.43
2023-03-11T18:11:33.731Z,69.94
2023-03-11T18:14:07.300Z,69.59
2023-03-11T18:16:40.261Z,69.75
2023-03-11T18:19:13.130Z,69.97
2023-03-11T18:21:47.361Z,71.44
2023-03-11T18:24:20.830Z,70.28
2023-03-11T18:26:53.397Z,70.52
2023-03-11T18:29:26.180Z,71.03
2023-03-11T18:31:58.878Z,70.81
2023-03-11T18:34:32.511Z,72.11
2023-03-11T18:37:06.713Z,70.52
2023-03-11T18:39:39.867Z,70.97
2023-03-11T18:42:14.301Z,71.04
2023-03-11T18:44:47.025Z,70.89
2023-03-11T18:47:19.692Z,71.23
2023-03-11T18:49:52.400Z,71.54
2023-03-11T18:52:26.499Z,71.19
2023-03-11T18:54:59.173Z,71.80
2023-03-11T18:57:31.765Z,72.14
2023-03-11T19:00:05.220Z,72.35
2023-03-11T19:02:37.787Z,71.17
2023-03-11T19:05:10.884Z,72.54
2023-03-11T19:07:44.853Z,72.00
2023-03-11T19:10:20.164Z,72.22
2023-03-11T19:12:52.890Z,73.04
2023-03-11T19:15:25.698Z,72.77
2023-03-11T19:18:06.716Z,73.45
2023-03-11T19:20:40.081Z,72.46
2023-03-11T19:23:14.016Z,72.37
2023-03-11T19:26:00.767Z,72.15
2023-03-11T19:28:35.575Z,72.66
2023-03-11T19:31:08.366Z,74.18
2023-03-11T19:33:41.286Z,73.17
2023-03-11T19:36:14.259Z,74.10
2023-03-11T19:38:48.978Z,72.17
2023-03-11T19:41:23.189Z,73.80
2023-03-11T19:43:55.820Z,75.26
2023-03-11T19:46:29.761Z,74.44
2023-03-11T19:49:02.364Z,74.11
2023-03-11T19:51:49.144Z,73.25
2023-03-11T19:54:23.338Z,72.67
2023-03-11T19:56:55.955Z,73.78
2023-03-11T19:59:28.586Z,73.68
2023-03-11T20:02:01.375Z,73.76
2023-03-11T20:04:34.148Z,75.80
2023-03-11T20:07:07.069Z,73.82
2023-03-11T20:09:41.069Z,74.26
2023-03-11T20:12:13.816Z,73.01
2023-03-11T20:14:46.833Z,73.88
2023-03-11T20:17:19.684Z,74.66
2023-03-11T20:19:52.469Z,75.49
2023-03-11T20:22:25.150Z,74.65
2023-03-11T20:24:59.187Z,73.57
2023-03-11T20:27:31.769Z,73.68
2023-03-11T20:30:04.958Z,75.47
2023-03-11T20:32:37.888Z,74.64
2023-03-11T20:35:10.786Z,74.03
2023-03-11T20:37:43.476Z,74.14
2023-03-11T20:40:18.893Z,75.34
2023-03-11T20:42:51.818Z,74.50
2023-03-11T20:45:25.866Z,72.96
2023-03-11T20:47:58.941Z,75.12
2023-03-11T20:50:31.960Z,74.55
2023-03-11T20:53:04.743Z,74.97
2023-03-11T20:55:41.739Z,74.19
2023-03-11T20:58:14.463Z,74.38
2023-03-11T21:00:47.072Z,73.89
2023-03-11T21:03:19.744Z,73.70
2023-03-11T21:05:53.124Z,73.56
2023-03-11T21:08:25.959Z,73.33
2023-03-11T21:11:01.673Z,74.38
2023-03-11T21:13:36.151Z,73.85
2023-03-11T21:16:09.575Z,72.75
2023-03-11T21:18:43.001Z,73.02
2023-03-11T21:21:16.430Z,75.08
2023-03-11T21:23:49.746Z,74.23
2023-03-11T21:26:23.710Z,74.84
2023-03-11T21:28:56.675Z,73.13
2023-03-11T21:31:30.068Z,72.19
2023-03-11T21:34:02.907Z,73.09
2023-03-11T21:36:36.072Z,73.82
2023-03-11T21:39:08.869Z,74.07
2023-03-11T21:41:42.951Z,73.69
2023-03-11T21:44:15.594Z,74.14
2023-03-11T21:46:48.393Z,72.98
2023-03-11T21:49:21.061Z,74.20
2023-03-11T21:51:53.662Z,73.37
2023-03-11T21:54:26.285Z,73.66
2023-03-11T21:57:00.643Z,75.03
2023-03-11T21:59:33.542Z,75.06
2023-03-11T22:02:06.338Z,73.23
2023-03-11T22:04:39.254Z,72.09
2023-03-11T22:07:12.169Z,72.66
2023-03-11T22:09:44.922Z,73.32
2023-03-11T22:12:19.028Z,73.31
2023-03-11T22:14:51.803Z,72.48
2023-03-11T22:17:24.457Z,72.69
2023-03-11T22:19:57.398Z,72.54
2023-03-11T22:22:29.998Z,72.60
2023-03-11T22:25:02.749Z,74.55
2023-03-11T22:27:36.671Z,74.47
2023-03-11T22:30:10.022Z,72.70
2023-03-11T22:32:42.731Z,73.60
2023-03-11T22:35:15.556Z,72.31
2023-03-11T22:37:48.142Z,71.53
2023-03-11T22:40:20.797Z,73.02
2023-03-11T22:42:54.683Z,73.59
2023-03-11T22:45:27.613Z,71.62
2023-03-11T22:48:00.732Z,72.35
2023-03-11T22:50:33.684Z,71.42
2023-03-11T22:53:06.725Z,73.62
2023-03-11T22:55:40.152Z,71.77
2023-03-11T22:58:14.088Z,72.73
2023-03-11T23:00:46.933Z,72.62
2023-03-11T23:03:19.625Z,73.38
2023-03-11T23:05:52.421Z,72.06
2023-03-11T23:08:25.145Z,71.23
2023-03-11T23:10:57.794Z,71.03
2023-03-11T23:13:35.528Z,71.34
2023-03-11T23:16:09.293Z,71.52
2023-03-11T23:18:42.268Z,72.43
2023-03-11T23:21:15.501Z,71.45
2023-03-11T23:23:48.478Z,72.74
2023-03-11T23:26:22.062Z,71.97
2023-03-11T23:28:56.563Z,71.63
2023-03-11T23:31:31.775Z,70.99
2023-03-11T23:34:06.493Z,70.88
2023-03-11T23:36:39.090Z,70.96
2023-03-11T23:39:11.885Z,71.31
2023-03-11T23:41:44.571Z,70.96
2023-03-11T23:44:18.530Z,71.20
2023-03-11T23:46:51.423Z,72.06
2023-03-11T23:49:26.403Z,71.04
2023-03-11T23:51:59.073Z,71.27
2023-03-11T23:54:31.672Z,71.15
2023-03-11T23:57:04.787Z,70.90
2023-03-11T23:59:47.173Z,70.92
